Time;durP1;ratioP1;P1;durP2;ratioP2;P2;SDS_P1;SDS_P2;PMS_P1;PMS_P2;Temp;Humidity;BMP_temperature;BMP_pressure;BME280_temperature;BME280_humidity;BME280_pressure;Samples;Min_cycle;Max_cycle;Signal;HPM_P1;HPM_P2
2022/10/17 00:01:10;;;;;;;11.93;3.08;;;;;;;;;;4963211;28;20034;-70
2022/10/17 00:03:37;;;;;;;10.80;2.47;;;;;;;;;;4966439;28;20115;-71
2022/10/17 00:06:07;;;;;;;9.25;2.08;;;;;;;;;;4968009;28;20033;-72
2022/10/17 00:08:33;;;;;;;8.93;2.83;;;;;;;;;;4967564;28;20042;-70
2022/10/17 00:11:01;;;;;;;9.02;2.30;;;;;;;;;;4971946;28;20031;-72
2022/10/17 00:13:27;;;;;;;11.57;3.13;;;;;;;;;;4965706;28;20125;-71
2022/10/17 00:15:53;;;;;;;9.98;2.75;;;;;;;;;;4963524;28;20051;-73
2022/10/17 00:18:20;;;;;;;11.55;2.47;;;;;;;;;;4964116;28;20062;-70
2022/10/17 00:20:46;;;;;;;12.00;3.05;;;;;;;;;;4964277;28;20037;-71
2022/10/17 00:23:12;;;;;;;15.95;3.13;;;;;;;;;;4967430;28;20460;-71
2022/10/17 00:25:39;;;;;;;12.82;2.85;;;;;;;;;;4972073;28;20030;-70
2022/10/17 00:28:05;;;;;;;12.38;2.90;;;;;;;;;;4965718;28;20042;-71
2022/10/17 00:30:31;;;;;;;13.63;2.88;;;;;;;;;;4969502;28;20074;-71
2022/10/17 00:32:57;;;;;;;10.77;2.83;;;;;;;;;;4962392;28;20113;-71
2022/10/17 00:35:23;;;;;;;14.77;2.95;;;;;;;;;;4963068;28;20516;-68
2022/10/17 00:37:49;;;;;;;19.65;9.18;;;;;;;;;;4959551;28;20113;-71
2022/10/17 00:40:16;;;;;;;16.73;2.85;;;;;;;;;;4963820;28;20066;-70
2022/10/17 00:42:42;;;;;;;11.73;5.05;;;;;;;;;;4965006;28;20031;-73
2022/10/17 00:45:27;;;;;;;10.95;3.63;;;;;;;;;;4967604;28;20105;-69
2022/10/17 00:48:02;;;;;;;14.90;2.95;;;;;;;;;;4966998;28;20042;-73
2022/10/17 00:50:29;;;;;;;10.52;3.03;;;;;;;;;;4962030;28;20379;-70
2022/10/17 00:52:58;;;;;;;8.23;2.38;;;;;;;;;;4959481;28;20034;-70
2022/10/17 00:55:28;;;;;;;8.82;2.75;;;;;;;;;;4959799;28;20019;-73
2022/10/17 00:57:55;;;;;;;9.02;3.10;;;;;;;;;;4968423;28;20038;-73
2022/10/17 01:00:21;;;;;;;12.57;3.05;;;;;;;;;;4972285;28;20046;-69
2022/10/17 01:02:47;;;;;;;7.28;2.83;;;;;;;;;;4969294;28;20431;-70
2022/10/17 01:05:14;;;;;;;9.82;3.58;;;;;;;;;;4970056;28;20027;-71
2022/10/17 01:07:41;;;;;;;11.38;2.83;;;;;;;;;;4963562;28;20476;-70
2022/10/17 01:10:08;;;;;;;13.07;3.20;;;;;;;;;;4967066;28;20035;-70
2022/10/17 01:12:34;;;;;;;12.10;3.53;;;;;;;;;;4955256;28;20030;-70
2022/10/17 01:15:00;;;;;;;15.75;2.90;;;;;;;;;;4973069;28;20090;-71
2022/10/17 01:17:49;;;;;;;8.90;2.95;;;;;;;;;;4975691;28;20030;-74
2022/10/17 01:20:34;;;;;;;11.35;2.97;;;;;;;;;;4963272;28;20027;-71
2022/10/17 01:23:11;;;;;;;13.27;3.97;;;;;;;;;;4974110;28;20035;-74
2022/10/17 01:25:55;;;;;;;12.20;3.30;;;;;;;;;;4967243;28;20490;-70
2022/10/17 01:28:40;;;;;;;9.60;3.45;;;;;;;;;;4975505;28;20043;-70
2022/10/17 01:31:09;;;;;;;10.15;3.13;;;;;;;;;;4966305;28;20550;-71
2022/10/17 01:33:38;;;;;;;19.08;4.45;;;;;;;;;;4973772;28;20265;-74
2022/10/17 01:36:11;;;;;;;9.25;2.80;;;;;;;;;;4984372;28;20420;-71
2022/10/17 01:38:48;;;;;;;14.27;3.47;;;;;;;;;;4975168;28;20031;-70
2022/10/17 01:41:20;;;;;;;10.30;3.17;;;;;;;;;;4969341;28;20058;-71
2022/10/17 01:43:53;;;;;;;14.18;3.40;;;;;;;;;;4956436;28;20110;-72
2022/10/17 01:46:19;;;;;;;12.48;3.75;;;;;;;;;;4967319;28;20431;-71
2022/10/17 01:48:45;;;;;;;13.65;3.63;;;;;;;;;;4973240;28;20078;-71
2022/10/17 01:51:23;;;;;;;8.88;4.03;;;;;;;;;;4967699;28;20485;-70
2022/10/17 01:53:52;;;;;;;11.85;3.38;;;;;;;;;;4964743;28;20384;-71
2022/10/17 01:56:20;;;;;;;12.85;3.67;;;;;;;;;;4966410;28;20070;-70
2022/10/17 01:58:49;;;;;;;9.90;4.00;;;;;;;;;;4987562;28;20047;-70
2022/10/17 02:01:16;;;;;;;11.70;3.72;;;;;;;;;;4973095;28;20146;-70
2022/10/17 02:03:43;;;;;;;13.40;3.95;;;;;;;;;;4984812;28;20133;-70
2022/10/17 02:06:09;;;;;;;13.10;4.60;;;;;;;;;;4966213;28;20031;-70
2022/10/17 02:08:43;;;;;;;8.85;3.60;;;;;;;;;;4970802;28;20530;-70
2022/10/17 02:11:17;;;;;;;12.55;4.00;;;;;;;;;;4972135;28;20043;-71
2022/10/17 02:13:43;;;;;;;11.85;4.32;;;;;;;;;;4970205;28;20691;-70
2022/10/17 02:16:15;;;;;;;7.90;3.80;;;;;;;;;;4973215;28;20051;-70
2022/10/17 02:18:57;;;;;;;9.50;4.60;;;;;;;;;;4974173;28;20297;-71
2022/10/17 02:21:26;;;;;;;13.32;4.50;;;;;;;;;;4970849;28;20446;-71
2022/10/17 02:24:00;;;;;;;14.18;4.63;;;;;;;;;;4972771;28;20026;-73
2022/10/17 02:26:26;;;;;;;12.05;5.30;;;;;;;;;;4961996;28;20103;-71
2022/10/17 02:28:57;;;;;;;11.57;4.60;;;;;;;;;;4982481;28;20043;-71
2022/10/17 02:31:30;;;;;;;8.77;4.47;;;;;;;;;;4967906;28;20022;-72
2022/10/17 02:33:58;;;;;;;15.10;5.05;;;;;;;;;;4971509;28;20027;-72
2022/10/17 02:36:27;;;;;;;9.18;4.72;;;;;;;;;;4963415;28;20023;-72
2022/10/17 02:38:54;;;;;;;8.25;5.38;;;;;;;;;;4951771;28;20027;-75
2022/10/17 02:41:21;;;;;;;10.63;4.95;;;;;;;;;;4970882;28;20031;-71
2022/10/17 02:43:48;;;;;;;8.32;4.78;;;;;;;;;;4971116;28;20065;-71
2022/10/17 02:46:19;;;;;;;15.25;5.20;;;;;;;;;;4968252;28;20046;-71
2022/10/17 02:48:48;;;;;;;16.42;6.32;;;;;;;;;;4973705;28;20431;-72
2022/10/17 02:51:26;;;;;;;17.73;6.30;;;;;;;;;;4964906;28;20074;-71
2022/10/17 02:53:52;;;;;;;13.27;6.03;;;;;;;;;;4955128;28;20379;-71
2022/10/17 02:56:20;;;;;;;10.10;6.35;;;;;;;;;;4963898;28;20042;-71
2022/10/17 02:58:50;;;;;;;14.18;6.70;;;;;;;;;;4968319;28;20043;-70
2022/10/17 03:01:16;;;;;;;11.57;6.43;;;;;;;;;;4972778;28;20038;-73
2022/10/17 03:03:42;;;;;;;15.25;6.72;;;;;;;;;;4963084;28;20070;-71
2022/10/17 03:06:08;;;;;;;11.57;6.88;;;;;;;;;;4972833;28;20058;-70
2022/10/17 03:08:34;;;;;;;10.60;7.78;;;;;;;;;;4972515;28;20089;-70
2022/10/17 03:11:00;;;;;;;14.30;8.15;;;;;;;;;;4968514;28;20046;-70
2022/10/17 03:13:26;;;;;;;10.75;7.40;;;;;;;;;;4971656;28;20067;-72
2022/10/17 03:15:52;;;;;;;13.27;8.27;;;;;;;;;;4962595;28;20043;-71
2022/10/17 03:18:18;;;;;;;13.00;7.70;;;;;;;;;;4976418;28;20092;-71
2022/10/17 03:20:44;;;;;;;13.50;7.82;;;;;;;;;;4966112;28;20089;-70
2022/10/17 03:23:10;;;;;;;9.15;7.43;;;;;;;;;;4972844;28;20038;-73
2022/10/17 03:25:36;;;;;;;16.08;8.27;;;;;;;;;;4969509;28;20039;-70
2022/10/17 03:28:04;;;;;;;18.20;9.38;;;;;;;;;;4965757;28;20042;-71
2022/10/17 03:30:30;;;;;;;13.20;7.55;;;;;;;;;;4971243;28;20031;-71
2022/10/17 03:32:59;;;;;;;16.70;9.00;;;;;;;;;;4966169;28;20638;-70
2022/10/17 03:35:26;;;;;;;13.35;9.88;;;;;;;;;;4972802;28;20034;-70
2022/10/17 03:37:52;;;;;;;14.15;10.50;;;;;;;;;;4969611;28;20061;-71
2022/10/17 03:40:18;;;;;;;17.77;10.77;;;;;;;;;;4962572;28;20026;-72
2022/10/17 03:42:44;;;;;;;14.95;11.32;;;;;;;;;;4958800;28;20033;-70
2022/10/17 03:45:10;;;;;;;20.13;11.35;;;;;;;;;;4968206;28;20027;-73
2022/10/17 03:47:36;;;;;;;13.73;9.90;;;;;;;;;;4971932;28;20027;-71
2022/10/17 03:50:02;;;;;;;14.80;10.95;;;;;;;;;;4965722;28;20038;-70
2022/10/17 03:52:28;;;;;;;13.20;11.55;;;;;;;;;;4971077;28;20027;-71
2022/10/17 03:54:54;;;;;;;16.27;12.15;;;;;;;;;;4972118;28;20182;-70
2022/10/17 03:57:20;;;;;;;23.42;12.85;;;;;;;;;;4966845;28;20300;-72
2022/10/17 03:59:46;;;;;;;18.77;12.48;;;;;;;;;;4972020;28;20035;-70
2022/10/17 04:02:12;;;;;;;18.85;12.40;;;;;;;;;;4966697;28;20038;-71
2022/10/17 04:04:38;;;;;;;23.45;13.77;;;;;;;;;;4969227;28;20042;-71
2022/10/17 04:07:04;;;;;;;20.23;12.88;;;;;;;;;;4978747;28;20042;-70
2022/10/17 04:09:30;;;;;;;22.83;14.77;;;;;;;;;;4953412;28;20042;-70
2022/10/17 04:11:56;;;;;;;26.15;15.27;;;;;;;;;;4971219;28;20042;-70
2022/10/17 04:14:22;;;;;;;19.33;14.25;;;;;;;;;;4971232;28;20059;-70
2022/10/17 04:16:50;;;;;;;39.47;16.90;;;;;;;;;;4962210;28;20038;-70
2022/10/17 04:19:16;;;;;;;24.98;14.45;;;;;;;;;;4963687;28;20121;-72
2022/10/17 04:21:42;;;;;;;20.73;16.30;;;;;;;;;;4967550;28;20038;-72
2022/10/17 04:24:10;;;;;;;23.88;15.43;;;;;;;;;;4972605;28;20074;-71
2022/10/17 04:26:36;;;;;;;17.05;14.32;;;;;;;;;;4966801;28;20396;-71
2022/10/17 04:29:02;;;;;;;19.80;14.85;;;;;;;;;;4971042;28;20039;-69
2022/10/17 04:31:28;;;;;;;38.92;27.88;;;;;;;;;;4968762;28;20050;-70
2022/10/17 04:33:54;;;;;;;24.50;16.75;;;;;;;;;;4971693;28;20054;-70
2022/10/17 04:36:22;;;;;;;20.88;16.40;;;;;;;;;;4970795;28;20035;-70
2022/10/17 04:38:48;;;;;;;23.92;16.33;;;;;;;;;;4962886;28;20046;-71
2022/10/17 04:41:15;;;;;;;22.60;16.88;;;;;;;;;;4977116;28;20039;-70
2022/10/17 04:43:42;;;;;;;19.48;16.38;;;;;;;;;;4975500;28;20455;-71
2022/10/17 04:46:09;;;;;;;21.25;15.40;;;;;;;;;;4950933;28;20039;-72
2022/10/17 04:48:35;;;;;;;20.83;15.48;;;;;;;;;;4960243;28;20546;-70
2022/10/17 04:51:03;;;;;;;20.25;15.82;;;;;;;;;;4947167;28;20093;-71
2022/10/17 04:53:31;;;;;;;23.05;16.55;;;;;;;;;;4958009;28;20384;-71
2022/10/17 04:55:57;;;;;;;25.48;18.95;;;;;;;;;;4947105;28;20035;-72
2022/10/17 04:58:23;;;;;;;28.13;19.73;;;;;;;;;;4957994;28;20053;-72
2022/10/17 05:00:49;;;;;;;24.48;16.17;;;;;;;;;;4974603;28;20416;-72
2022/10/17 05:03:16;;;;;;;28.00;17.50;;;;;;;;;;4966044;28;20041;-73
2022/10/17 05:05:45;;;;;;;25.15;16.00;;;;;;;;;;4965403;28;20042;-70
2022/10/17 05:08:11;;;;;;;26.30;16.15;;;;;;;;;;4964705;28;20046;-70
2022/10/17 05:10:38;;;;;;;21.88;16.13;;;;;;;;;;4976755;28;20431;-71
2022/10/17 05:13:04;;;;;;;21.10;16.85;;;;;;;;;;4964425;28;20019;-71
2022/10/17 05:15:31;;;;;;;23.40;15.57;;;;;;;;;;4971030;28;20058;-72
2022/10/17 05:17:57;;;;;;;23.00;17.15;;;;;;;;;;4969394;28;20031;-72
2022/10/17 05:20:23;;;;;;;26.15;17.63;;;;;;;;;;4966711;28;20043;-72
2022/10/17 05:22:49;;;;;;;22.33;15.60;;;;;;;;;;4968765;28;20057;-73
2022/10/17 05:25:15;;;;;;;25.10;15.65;;;;;;;;;;4973610;28;20078;-72
2022/10/17 05:27:41;;;;;;;25.17;17.08;;;;;;;;;;4972373;28;20042;-71
2022/10/17 05:30:08;;;;;;;25.30;16.55;;;;;;;;;;4960712;28;20050;-71
2022/10/17 05:32:34;;;;;;;18.73;14.85;;;;;;;;;;4973924;28;20391;-71
2022/10/17 05:35:00;;;;;;;26.80;17.15;;;;;;;;;;4970294;28;20122;-72
2022/10/17 05:37:28;;;;;;;27.95;21.80;;;;;;;;;;4971217;28;20030;-72
2022/10/17 05:39:54;;;;;;;22.17;15.43;;;;;;;;;;4965368;28;20122;-73
2022/10/17 05:42:20;;;;;;;27.73;18.45;;;;;;;;;;4972919;28;20502;-74
2022/10/17 05:44:46;;;;;;;21.58;17.02;;;;;;;;;;4969113;28;20644;-73
2022/10/17 05:47:12;;;;;;;24.38;17.38;;;;;;;;;;4970695;28;20039;-71
2022/10/17 05:49:38;;;;;;;22.05;17.23;;;;;;;;;;4970464;28;20031;-72
2022/10/17 05:52:04;;;;;;;24.88;18.05;;;;;;;;;;4960966;28;20026;-71
2022/10/17 05:54:30;;;;;;;27.90;16.80;;;;;;;;;;4955995;28;20034;-72
2022/10/17 05:56:56;;;;;;;22.38;16.65;;;;;;;;;;4961147;28;20034;-72
2022/10/17 05:59:24;;;;;;;26.98;16.90;;;;;;;;;;4964560;28;20039;-73
2022/10/17 06:01:50;;;;;;;24.17;15.77;;;;;;;;;;4966465;28;20035;-72
2022/10/17 06:04:16;;;;;;;26.52;16.23;;;;;;;;;;4966462;28;20027;-73
2022/10/17 06:06:42;;;;;;;19.30;15.57;;;;;;;;;;4969099;28;20536;-73
2022/10/17 06:09:08;;;;;;;22.15;14.85;;;;;;;;;;4956979;28;20042;-71
2022/10/17 06:11:35;;;;;;;27.35;16.23;;;;;;;;;;4971693;28;20019;-71
2022/10/17 06:14:02;;;;;;;21.77;15.40;;;;;;;;;;4968099;28;20038;-72
2022/10/17 06:16:28;;;;;;;29.02;15.18;;;;;;;;;;4971146;28;20038;-72
2022/10/17 06:18:54;;;;;;;17.92;14.00;;;;;;;;;;4971492;28;20114;-71
2022/10/17 06:21:24;;;;;;;21.35;14.73;;;;;;;;;;4967986;28;20113;-73
2022/10/17 06:23:51;;;;;;;25.70;14.95;;;;;;;;;;4969355;28;20035;-71
2022/10/17 06:26:17;;;;;;;16.25;13.27;;;;;;;;;;4968179;28;20114;-74
2022/10/17 06:28:43;;;;;;;21.05;14.18;;;;;;;;;;4983917;28;20054;-71
2022/10/17 06:31:10;;;;;;;25.42;13.82;;;;;;;;;;4972093;28;20030;-70
2022/10/17 06:33:37;;;;;;;25.30;13.98;;;;;;;;;;4968178;28;20078;-70
2022/10/17 06:36:03;;;;;;;15.68;11.60;;;;;;;;;;4970946;28;20105;-71
2022/10/17 06:38:30;;;;;;;19.05;12.35;;;;;;;;;;4966685;28;20070;-71
2022/10/17 06:41:02;;;;;;;16.77;12.35;;;;;;;;;;4973006;28;20035;-70
2022/10/17 06:43:28;;;;;;;;;;;;;;;;;;4959281;28;20050;-73
2022/10/17 06:45:54;;;;;;;20.50;10.90;;;;;;;;;;4961319;28;20450;-70
2022/10/17 06:48:20;;;;;;;15.15;11.02;;;;;;;;;;4969913;28;20046;-71
2022/10/17 06:50:46;;;;;;;19.08;11.23;;;;;;;;;;4973880;28;20034;-70
2022/10/17 06:53:12;;;;;;;18.75;11.73;;;;;;;;;;4966627;28;20039;-70
2022/10/17 06:55:38;;;;;;;22.30;12.00;;;;;;;;;;4971362;28;20050;-70
2022/10/17 06:58:04;;;;;;;13.23;10.27;;;;;;;;;;4965334;28;20046;-71
2022/10/17 07:00:30;;;;;;;12.43;9.82;;;;;;;;;;4969008;28;20037;-71
2022/10/17 07:02:56;;;;;;;14.13;9.75;;;;;;;;;;4958331;28;20038;-72
2022/10/17 07:05:22;;;;;;;19.02;9.57;;;;;;;;;;4968601;28;20475;-73
2022/10/17 07:07:49;;;;;;;12.02;8.98;;;;;;;;;;4970750;28;20113;-72
2022/10/17 07:10:15;;;;;;;11.57;8.55;;;;;;;;;;4973500;28;20052;-70
2022/10/17 07:12:43;;;;;;;12.55;8.80;;;;;;;;;;4966828;28;20035;-71
2022/10/17 07:15:09;;;;;;;10.25;8.38;;;;;;;;;;4952457;28;20517;-71
2022/10/17 07:17:36;;;;;;;10.07;8.77;;;;;;;;;;4971569;28;20019;-71
2022/10/17 07:20:02;;;;;;;13.90;9.23;;;;;;;;;;4967556;28;20035;-71
2022/10/17 07:22:28;;;;;;;11.13;8.10;;;;;;;;;;4971882;28;20035;-72
2022/10/17 07:24:54;;;;;;;15.60;9.20;;;;;;;;;;4970017;28;20042;-71
2022/10/17 07:27:20;;;;;;;11.68;8.80;;;;;;;;;;4970994;28;20042;-73
2022/10/17 07:29:46;;;;;;;14.35;7.72;;;;;;;;;;4971831;28;20403;-71
2022/10/17 07:32:12;;;;;;;12.25;7.47;;;;;;;;;;4973062;28;20487;-71
2022/10/17 07:34:38;;;;;;;10.32;7.35;;;;;;;;;;4968563;28;20492;-73
2022/10/17 07:37:05;;;;;;;15.55;9.30;;;;;;;;;;4972122;28;20035;-72
2022/10/17 07:39:31;;;;;;;9.48;7.10;;;;;;;;;;4985936;28;20525;-72
2022/10/17 07:41:57;;;;;;;12.38;8.00;;;;;;;;;;4973033;28;20034;-72
2022/10/17 07:44:23;;;;;;;13.38;8.23;;;;;;;;;;4968581;28;20035;-73
2022/10/17 07:46:49;;;;;;;12.90;7.18;;;;;;;;;;4972751;28;20388;-72
2022/10/17 07:49:15;;;;;;;11.48;7.13;;;;;;;;;;4963443;28;20645;-71
2022/10/17 07:51:42;;;;;;;14.88;7.38;;;;;;;;;;4965721;28;20407;-73
2022/10/17 07:54:08;;;;;;;9.90;6.90;;;;;;;;;;4966645;28;20105;-71
2022/10/17 07:56:34;;;;;;;11.10;7.10;;;;;;;;;;4972764;28;20023;-72
2022/10/17 07:59:00;;;;;;;11.10;7.43;;;;;;;;;;4970088;28;20046;-72
2022/10/17 08:01:27;;;;;;;10.00;6.53;;;;;;;;;;4969081;28;21653;-73
2022/10/17 08:03:53;;;;;;;12.05;6.65;;;;;;;;;;4966020;28;20042;-73
2022/10/17 08:06:19;;;;;;;12.35;7.35;;;;;;;;;;4969720;28;20038;-71
2022/10/17 08:08:45;;;;;;;14.70;7.90;;;;;;;;;;4961134;28;20047;-71
2022/10/17 08:11:12;;;;;;;9.30;7.28;;;;;;;;;;4971545;28;20081;-72
2022/10/17 08:13:39;;;;;;;9.93;7.32;;;;;;;;;;4969627;28;20030;-74
2022/10/17 08:16:06;;;;;;;9.52;7.78;;;;;;;;;;4982624;28;20515;-71
2022/10/17 08:18:33;;;;;;;13.57;8.00;;;;;;;;;;4972492;28;20602;-70
2022/10/17 08:21:00;;;;;;;11.82;7.97;;;;;;;;;;4966122;28;20035;-70
2022/10/17 08:23:26;;;;;;;10.20;7.07;;;;;;;;;;4954478;28;20041;-72
2022/10/17 08:25:52;;;;;;;14.73;7.60;;;;;;;;;;4955145;28;20538;-72
2022/10/17 08:28:18;;;;;;;7.75;6.95;;;;;;;;;;4946153;28;20030;-70
2022/10/17 08:30:44;;;;;;;12.45;7.57;;;;;;;;;;4950836;28;20034;-72
2022/10/17 08:33:11;;;;;;;13.93;8.20;;;;;;;;;;4944141;28;20484;-74
2022/10/17 08:35:37;;;;;;;11.68;8.13;;;;;;;;;;4949054;28;20038;-73
2022/10/17 08:38:03;;;;;;;11.35;9.02;;;;;;;;;;4970871;28;20412;-73
2022/10/17 08:40:32;;;;;;;18.25;7.90;;;;;;;;;;4962267;28;20480;-71
2022/10/17 08:43:01;;;;;;;15.57;8.02;;;;;;;;;;4972985;28;20059;-70
2022/10/17 08:45:30;;;;;;;10.07;7.28;;;;;;;;;;4971845;28;21783;-69
2022/10/17 08:48:00;;;;;;;10.85;7.93;;;;;;;;;;4965847;28;20031;-70
2022/10/17 08:50:32;;;;;;;13.38;7.57;;;;;;;;;;4986221;28;20035;-70
2022/10/17 08:53:03;;;;;;;13.52;8.02;;;;;;;;;;4968442;28;20027;-69
2022/10/17 08:55:36;;;;;;;14.90;7.32;;;;;;;;;;4959859;28;20031;-70
2022/10/17 08:58:02;;;;;;;12.48;8.07;;;;;;;;;;4971400;28;20122;-70
2022/10/17 09:00:29;;;;;;;11.77;7.18;;;;;;;;;;4966173;28;20038;-69
2022/10/17 09:03:13;;;;;;;10.18;8.23;;;;;;;;;;4970532;28;20042;-69
2022/10/17 09:06:02;;;;;;;12.38;8.32;;;;;;;;;;4966485;28;20030;-70
2022/10/17 09:08:35;;;;;;;10.88;8.30;;;;;;;;;;4966308;28;20051;-69
2022/10/17 09:11:01;;;;;;;;;;;;;;;;;;4967073;28;20030;-69
2022/10/17 09:13:27;;;;;;;13.75;8.85;;;;;;;;;;4958890;28;19945;-70
2022/10/17 09:16:08;;;;;;;20.63;11.63;;;;;;;;;;4966996;28;20059;-69
2022/10/17 09:18:40;;;;;;;12.73;9.73;;;;;;;;;;4967724;28;20037;-72
2022/10/17 09:21:09;;;;;;;17.75;9.48;;;;;;;;;;4963405;28;20027;-70
2022/10/17 09:23:43;;;;;;;14.15;10.02;;;;;;;;;;4971589;28;20121;-70
2022/10/17 09:26:10;;;;;;;16.65;9.75;;;;;;;;;;4956577;28;20027;-69
2022/10/17 09:28:38;;;;;;;15.15;10.23;;;;;;;;;;4969543;28;20053;-72
2022/10/17 09:31:04;;;;;;;11.70;9.77;;;;;;;;;;4965501;28;20027;-71
2022/10/17 09:33:34;;;;;;;16.35;11.65;;;;;;;;;;4965322;28;20031;-68
2022/10/17 09:36:01;;;;;;;19.08;11.40;;;;;;;;;;4967069;28;20030;-69
2022/10/17 09:38:33;;;;;;;18.15;10.80;;;;;;;;;;4975087;28;20426;-68
2022/10/17 09:41:00;;;;;;;16.52;11.00;;;;;;;;;;4970577;28;20035;-69
2022/10/17 09:43:27;;;;;;;19.48;10.32;;;;;;;;;;4969808;28;20520;-68
2022/10/17 09:46:07;;;;;;;17.10;10.13;;;;;;;;;;4963058;28;20039;-70
2022/10/17 09:48:42;;;;;;;15.30;11.02;;;;;;;;;;4971108;28;20122;-69
2022/10/17 09:51:08;;;;;;;15.55;10.00;;;;;;;;;;4968025;28;20031;-72
2022/10/17 09:53:40;;;;;;;16.90;11.30;;;;;;;;;;4968121;28;20481;-72
2022/10/17 09:56:14;;;;;;;23.92;11.10;;;;;;;;;;4971631;28;20035;-69
2022/10/17 09:58:42;;;;;;;17.60;11.60;;;;;;;;;;4967708;28;20046;-68
2022/10/17 10:01:34;;;;;;;18.58;10.88;;;;;;;;;;4964179;28;20507;-73
2022/10/17 10:04:26;;;;;;;21.00;11.05;;;;;;;;;;4965162;28;20043;-69
2022/10/17 10:07:06;;;;;;;16.65;11.60;;;;;;;;;;4970384;28;20043;-70
2022/10/17 10:09:34;;;;;;;16.38;10.38;;;;;;;;;;4972764;28;20428;-74
2022/10/17 10:12:02;;;;;;;14.55;10.77;;;;;;;;;;4968953;28;20030;-71
2022/10/17 10:14:35;;;;;;;16.52;10.90;;;;;;;;;;4962948;28;20031;-71
2022/10/17 10:17:03;;;;;;;19.52;11.52;;;;;;;;;;4972477;28;20042;-70
2022/10/17 10:19:30;;;;;;;19.17;11.40;;;;;;;;;;4964446;28;20031;-71
2022/10/17 10:21:57;;;;;;;21.02;12.35;;;;;;;;;;4974168;28;20130;-70
2022/10/17 10:24:25;;;;;;;16.67;12.10;;;;;;;;;;4970268;28;20473;-70
2022/10/17 10:26:54;;;;;;;28.75;19.20;;;;;;;;;;4988453;28;20031;-74
2022/10/17 10:29:23;;;;;;;38.00;22.55;;;;;;;;;;4970879;28;20062;-71
2022/10/17 10:31:50;;;;;;;19.63;13.02;;;;;;;;;;4973635;28;20022;-70
2022/10/17 10:34:16;;;;;;;17.45;12.27;;;;;;;;;;4968974;28;20019;-72
2022/10/17 10:36:47;;;;;;;33.13;15.32;;;;;;;;;;4966235;28;20042;-71
2022/10/17 10:39:26;;;;;;;19.67;12.30;;;;;;;;;;4973470;28;20035;-74
2022/10/17 10:41:52;;;;;;;20.92;12.57;;;;;;;;;;4973628;28;20105;-71
2022/10/17 10:44:21;;;;;;;26.08;12.88;;;;;;;;;;4964865;28;20027;-72
2022/10/17 10:46:47;;;;;;;18.05;12.02;;;;;;;;;;4985488;28;20050;-71
2022/10/17 10:49:30;;;;;;;27.05;13.57;;;;;;;;;;4972045;28;20120;-71
2022/10/17 10:51:56;;;;;;;;;;;;;;;;;;4970551;28;20039;-71
2022/10/17 10:54:25;;;;;;;20.08;11.90;;;;;;;;;;4970855;28;19972;-71
2022/10/17 10:56:56;;;;;;;18.27;10.88;;;;;;;;;;4973560;28;20038;-72
2022/10/17 10:59:35;;;;;;;21.92;12.20;;;;;;;;;;4969439;28;23291;-71
2022/10/17 11:02:04;;;;;;;19.30;11.02;;;;;;;;;;4967440;28;20109;-71
2022/10/17 11:04:39;;;;;;;16.25;11.07;;;;;;;;;;4966394;28;20146;-74
2022/10/17 11:07:18;;;;;;;15.70;11.23;;;;;;;;;;4970224;28;20054;-72
2022/10/17 11:09:47;;;;;;;19.83;12.82;;;;;;;;;;4963162;28;20202;-72
2022/10/17 11:12:20;;;;;;;14.77;10.75;;;;;;;;;;4971943;28;20066;-72
2022/10/17 11:14:51;;;;;;;14.15;10.27;;;;;;;;;;4970734;28;20026;-73
2022/10/17 11:17:17;;;;;;;15.40;11.02;;;;;;;;;;4965939;28;20043;-73
2022/10/17 11:19:55;;;;;;;14.77;11.10;;;;;;;;;;4968081;28;20106;-76
2022/10/17 11:22:30;;;;;;;25.65;10.88;;;;;;;;;;4972110;28;20102;-72
2022/10/17 11:25:13;;;;;;;16.58;10.65;;;;;;;;;;4958706;28;20031;-79
2022/10/17 11:27:39;;;;;;;15.43;10.43;;;;;;;;;;4961245;28;20045;-75
2022/10/17 11:30:05;;;;;;;14.50;10.05;;;;;;;;;;4965691;28;20054;-72
2022/10/17 11:32:42;;;;;;;12.85;9.13;;;;;;;;;;4969325;28;20077;-72
2022/10/17 11:35:28;;;;;;;10.00;7.88;;;;;;;;;;4970931;28;20035;-75
2022/10/17 11:38:00;;;;;;;8.93;7.18;;;;;;;;;;4963565;28;20074;-71
2022/10/17 11:40:38;;;;;;;15.70;7.30;;;;;;;;;;4961167;28;20023;-72
2022/10/17 11:43:17;;;;;;;17.90;9.52;;;;;;;;;;4970004;28;20054;-74
2022/10/17 11:45:46;;;;;;;11.98;7.70;;;;;;;;;;4969978;28;20030;-77
2022/10/17 11:48:20;;;;;;;10.27;7.30;;;;;;;;;;4970940;28;20735;-76
2022/10/17 11:50:49;;;;;;;9.75;7.03;;;;;;;;;;4967707;28;20105;-74
2022/10/17 11:53:23;;;;;;;18.65;7.43;;;;;;;;;;4964503;28;20142;-71
2022/10/17 11:55:50;;;;;;;8.10;6.05;;;;;;;;;;4968286;28;20098;-73
2022/10/17 11:58:19;;;;;;;12.30;6.53;;;;;;;;;;4960588;28;20031;-72
2022/10/17 12:00:57;;;;;;;9.63;6.10;;;;;;;;;;4972444;28;20030;-71
2022/10/17 12:03:23;;;;;;;10.35;6.40;;;;;;;;;;4970191;28;20118;-73
2022/10/17 12:05:52;;;;;;;12.20;5.03;;;;;;;;;;4968038;28;20105;-75
2022/10/17 12:08:24;;;;;;;9.63;5.72;;;;;;;;;;4966729;28;20387;-73
2022/10/17 12:11:09;;;;;;;6.50;5.32;;;;;;;;;;4969535;28;20031;-73
2022/10/17 12:13:40;;;;;;;9.90;4.43;;;;;;;;;;4966644;28;20042;-73
2022/10/17 12:16:18;;;;;;;11.73;4.78;;;;;;;;;;4961868;28;20086;-72
2022/10/17 12:18:49;;;;;;;6.30;4.55;;;;;;;;;;4976535;28;20608;-73
2022/10/17 12:21:15;;;;;;;8.48;4.10;;;;;;;;;;4972497;28;20106;-71
2022/10/17 12:23:51;;;;;;;9.32;5.70;;;;;;;;;;4965202;28;20038;-74
2022/10/17 12:26:25;;;;;;;8.38;6.25;;;;;;;;;;4970947;28;20034;-72
2022/10/17 12:28:51;;;;;;;8.73;6.43;;;;;;;;;;4970829;28;20039;-73
2022/10/17 12:31:24;;;;;;;9.90;6.05;;;;;;;;;;4960284;28;20541;-71
2022/10/17 12:34:03;;;;;;;4.97;3.70;;;;;;;;;;4963973;28;20105;-72
2022/10/17 12:36:29;;;;;;;5.40;3.15;;;;;;;;;;4964128;28;20117;-71
2022/10/17 12:39:01;;;;;;;4.97;3.25;;;;;;;;;;4972017;28;20062;-71
2022/10/17 12:41:40;;;;;;;6.07;2.53;;;;;;;;;;4967046;28;20031;-72
2022/10/17 12:44:15;;;;;;;6.85;3.30;;;;;;;;;;4972395;28;20438;-76
2022/10/17 12:46:47;;;;;;;3.97;2.20;;;;;;;;;;4964585;28;20027;-71
2022/10/17 12:49:33;;;;;;;5.57;2.92;;;;;;;;;;4970677;28;20031;-77
2022/10/17 12:52:26;;;;;;;6.78;2.90;;;;;;;;;;4957634;28;20037;-71
2022/10/17 12:54:55;;;;;;;6.68;2.60;;;;;;;;;;4977878;28;20039;-71
2022/10/17 12:57:31;;;;;;;6.65;2.47;;;;;;;;;;4972076;28;20034;-71
2022/10/17 12:59:58;;;;;;;8.15;2.53;;;;;;;;;;4962488;28;20105;-74
2022/10/17 13:02:26;;;;;;;5.40;2.40;;;;;;;;;;4963043;28;20027;-72
2022/10/17 13:04:57;;;;;;;4.20;2.30;;;;;;;;;;4952786;28;20039;-76
2022/10/17 13:07:24;;;;;;;4.80;2.50;;;;;;;;;;4971560;28;20102;-72
2022/10/17 13:09:51;;;;;;;3.95;2.25;;;;;;;;;;4969440;28;20731;-74
2022/10/17 13:12:23;;;;;;;5.22;2.70;;;;;;;;;;4975995;28;20030;-72
2022/10/17 13:14:50;;;;;;;8.32;3.10;;;;;;;;;;4962899;28;20015;-74
2022/10/17 13:17:25;;;;;;;5.30;3.33;;;;;;;;;;4973046;28;20038;-73
2022/10/17 13:19:51;;;;;;;4.80;3.15;;;;;;;;;;4970286;28;20101;-72
2022/10/17 13:22:18;;;;;;;4.53;3.10;;;;;;;;;;4973321;28;20977;-72
2022/10/17 13:24:46;;;;;;;4.70;2.90;;;;;;;;;;4964225;28;20465;-72
2022/10/17 13:27:24;;;;;;;9.27;3.63;;;;;;;;;;4971072;28;20162;-72
2022/10/17 13:29:50;;;;;;;4.25;3.10;;;;;;;;;;4975504;28;20031;-72
2022/10/17 13:32:16;;;;;;;8.27;3.03;;;;;;;;;;4971167;28;20046;-72
2022/10/17 13:34:42;;;;;;;5.35;2.90;;;;;;;;;;4961522;28;20038;-74
2022/10/17 13:37:12;;;;;;;8.40;2.70;;;;;;;;;;4972715;28;20050;-73
2022/10/17 13:39:39;;;;;;;7.32;3.13;;;;;;;;;;4969096;28;20066;-72
2022/10/17 13:42:06;;;;;;;9.88;3.20;;;;;;;;;;4976445;28;20438;-72
2022/10/17 13:44:33;;;;;;;4.93;2.78;;;;;;;;;;4962261;28;20047;-73
2022/10/17 13:46:59;;;;;;;10.07;4.47;;;;;;;;;;4968602;28;20117;-75
2022/10/17 13:49:40;;;;;;;3.75;2.35;;;;;;;;;;4969269;28;20035;-73
2022/10/17 13:52:07;;;;;;;4.97;2.05;;;;;;;;;;4971807;28;20113;-73
2022/10/17 13:54:40;;;;;;;6.97;2.15;;;;;;;;;;4964767;28;20173;-74
2022/10/17 13:57:26;;;;;;;7.57;2.00;;;;;;;;;;4973111;28;20104;-73
2022/10/17 13:59:55;;;;;;;4.15;1.70;;;;;;;;;;4967902;28;20045;-73
2022/10/17 14:02:27;;;;;;;3.90;1.65;;;;;;;;;;4973446;28;20026;-73
2022/10/17 14:05:19;;;;;;;5.85;1.80;;;;;;;;;;4965483;28;20042;-74
2022/10/17 14:07:45;;;;;;;5.40;1.90;;;;;;;;;;4963896;28;20078;-73
2022/10/17 14:10:37;;;;;;;5.00;2.47;;;;;;;;;;4967325;28;20035;-73
2022/10/17 14:13:07;;;;;;;8.05;2.75;;;;;;;;;;4965302;28;20046;-72
2022/10/17 14:15:36;;;;;;;7.53;2.63;;;;;;;;;;4965084;28;20969;-74
2022/10/17 14:18:06;;;;;;;7.03;1.88;;;;;;;;;;4973057;28;20043;-75
2022/10/17 14:20:32;;;;;;;7.38;2.38;;;;;;;;;;4973153;28;20042;-72
2022/10/17 14:22:59;;;;;;;8.13;2.72;;;;;;;;;;4966691;28;20037;-73
2022/10/17 14:25:34;;;;;;;6.03;2.45;;;;;;;;;;4966096;28;20033;-73
2022/10/17 14:28:02;;;;;;;8.70;2.58;;;;;;;;;;4973135;28;20050;-73
2022/10/17 14:30:32;;;;;;;6.47;2.15;;;;;;;;;;4965284;28;20042;-77
2022/10/17 14:33:01;;;;;;;6.85;1.90;;;;;;;;;;4973239;28;20027;-72
2022/10/17 14:35:27;;;;;;;5.22;1.77;;;;;;;;;;4970095;28;20062;-72
2022/10/17 14:37:57;;;;;;;4.85;2.80;;;;;;;;;;4961027;28;20046;-73
2022/10/17 14:40:24;;;;;;;8.88;3.28;;;;;;;;;;4969221;28;20031;-72